Time;durP1;ratioP1;P1;durP2;ratioP2;P2;SDS_P1;SDS_P2;PMS_P1;PMS_P2;Temp;Humidity;BMP_temperature;BMP_pressure;BME280_temperature;BME280_humidity;BME280_pressure;Samples;Min_cycle;Max_cycle;Signal;HPM_P1;HPM_P2
2022/06/29 00:00:24;;;;;;;6.13;5.82;;;;;;;16.39;87.91;101126.78;6053054;23;20101;-68
2022/06/29 00:02:51;;;;;;;4.90;4.70;;;;;;;16.30;88.59;101122.97;6006660;23;20050;-68
2022/06/29 00:05:21;;;;;;;5.80;5.55;;;;;;;16.25;89.99;101128.56;6054120;23;20039;-68
2022/06/29 00:07:48;;;;;;;5.30;5.10;;;;;;;16.20;90.12;101128.06;6035228;23;20030;-68
2022/06/29 00:10:15;;;;;;;6.53;6.22;;;;;;;16.03;89.92;101115.13;6041625;23;20089;-68
2022/06/29 00:12:44;;;;;;;5.13;4.93;;;;;;;15.71;89.91;101113.66;6023198;23;20106;-68
2022/06/29 00:15:12;;;;;;;7.47;7.07;;;;;;;15.84;90.08;101115.53;6047173;23;20030;-67
2022/06/29 00:17:38;;;;;;;5.30;5.10;;;;;;;15.89;91.44;101124.84;6058425;23;20025;-68
2022/06/29 00:20:07;;;;;;;6.85;6.55;;;;;;;15.04;91.99;101017.69;6031664;23;20089;-67
2022/06/29 00:22:35;;;;;;;5.30;5.10;;;;;;;15.82;93.07;101120.94;6053377;23;20700;-68
2022/06/29 00:25:02;;;;;;;6.43;6.13;;;;;;;15.80;92.97;101117.53;6037208;23;20099;-68
2022/06/29 00:27:29;;;;;;;5.30;5.10;;;;;;;15.06;92.73;101019.25;6060507;23;20023;-68
2022/06/29 00:29:56;;;;;;;5.13;4.93;;;;;;;15.66;93.67;101110.50;6050432;23;20020;-67
2022/06/29 00:32:22;;;;;;;5.43;5.15;;;;;;;15.65;93.79;101110.59;6036237;23;20019;-68
2022/06/29 00:34:49;;;;;;;5.40;5.20;;;;;;;15.68;94.77;101120.97;6048599;23;20469;-68
2022/06/29 00:37:15;;;;;;;6.25;5.95;;;;;;;15.29;95.10;101064.47;6046425;23;20018;-67
2022/06/29 00:39:42;;;;;;;5.93;5.63;;;;;;;15.61;94.25;101135.56;6043903;23;20022;-68
2022/06/29 00:42:09;;;;;;;6.95;6.65;;;;;;;15.48;95.64;101093.22;6050592;23;20206;-68
2022/06/29 00:44:35;;;;;;;5.30;5.00;;;;;;;14.92;97.79;101017.53;6048897;23;20026;-68
2022/06/29 00:47:04;;;;;;;6.38;6.07;;;;;;;15.49;97.84;101108.94;6023980;23;20014;-67
2022/06/29 00:49:32;;;;;;;4.90;4.70;;;;;;;15.49;97.91;101127.47;6045033;23;20065;-68
2022/06/29 00:52:06;;;;;;;5.32;5.10;;;;;;;15.48;98.62;101114.38;6030861;23;20104;-66
2022/06/29 00:54:38;;;;;;;5.25;5.05;;;;;;;15.48;99.53;101111.72;6049477;23;20013;-67
2022/06/29 00:57:13;;;;;;;5.82;5.55;;;;;;;15.45;99.12;101109.28;6050547;23;20030;-67
2022/06/29 00:59:48;;;;;;;5.53;5.18;;;;;;;15.42;99.26;101105.03;6029697;23;20018;-68
2022/06/29 01:02:17;;;;;;;5.18;4.97;;;;;;;15.37;98.92;101115.06;6057658;23;20464;-68
2022/06/29 01:04:45;;;;;;;4.93;4.72;;;;;;;15.25;99.07;101097.34;6056323;23;20403;-67
2022/06/29 01:07:17;;;;;;;5.03;4.82;;;;;;;15.33;98.21;101108.28;6063198;23;20081;-66
2022/06/29 01:09:44;;;;;;;5.13;4.93;;;;;;;15.26;98.75;101102.56;6032214;23;21132;-67
2022/06/29 01:12:12;;;;;;;5.10;4.90;;;;;;;15.22;99.21;101102.88;6059361;23;20037;-66
2022/06/29 01:14:46;;;;;;;5.40;5.10;;;;;;;15.09;98.75;101094.88;6054552;23;20010;-67
2022/06/29 01:17:13;;;;;;;4.85;4.65;;;;;;;15.14;99.43;101106.00;6033799;23;20721;-67
2022/06/29 01:19:41;;;;;;;5.10;4.90;;;;;;;15.09;99.58;101108.91;6052814;23;20599;-69
2022/06/29 01:22:19;;;;;;;7.05;6.75;;;;;;;14.91;100.00;101086.31;6023100;23;20030;-66
2022/06/29 01:24:47;;;;;;;5.30;5.10;;;;;;;14.84;99.77;101074.47;6055394;23;20035;-67
2022/06/29 01:27:14;;;;;;;5.07;4.88;;;;;;;14.95;100.00;101103.69;6053840;23;20010;-67
2022/06/29 01:29:42;;;;;;;5.00;4.80;;;;;;;14.51;100.00;101036.00;6055021;23;20050;-67
2022/06/29 01:32:08;;;;;;;6.57;6.28;;;;;;;14.85;100.00;101095.47;6025781;23;20358;-66
2022/06/29 01:34:36;;;;;;;6.20;5.75;;;;;;;14.68;100.00;101078.06;6053851;23;20340;-66
2022/06/29 01:37:04;;;;;;;6.53;6.22;;;;;;;14.79;100.00;101090.59;6035834;23;20042;-66
2022/06/29 01:39:31;;;;;;;4.90;4.70;;;;;;;14.76;100.00;101090.81;6068141;23;20081;-66
2022/06/29 01:41:58;;;;;;;5.35;5.10;;;;;;;13.55;100.00;100906.47;6037911;23;20093;-67
2022/06/29 01:44:24;;;;;;;5.18;4.97;;;;;;;14.66;100.00;101093.19;6047230;23;20029;-66
2022/06/29 01:46:51;;;;;;;5.00;4.80;;;;;;;14.64;100.00;101096.88;6042430;23;20042;-67
2022/06/29 01:49:17;;;;;;;5.55;5.25;;;;;;;14.51;100.00;101087.03;6033223;23;20243;-67
2022/06/29 01:51:44;;;;;;;5.10;4.90;;;;;;;14.54;100.00;101101.84;6029477;23;20105;-66
2022/06/29 01:54:11;;;;;;;6.60;6.30;;;;;;;14.32;100.00;101068.84;6051314;23;20042;-66
2022/06/29 01:56:37;;;;;;;5.20;5.00;;;;;;;14.37;100.00;101079.09;6044225;23;20069;-67
2022/06/29 01:59:04;;;;;;;6.50;6.20;;;;;;;14.10;100.00;101034.16;6025812;23;20108;-67
2022/06/29 02:01:31;;;;;;;5.18;4.97;;;;;;;14.34;100.00;101084.59;6046452;23;20054;-67
2022/06/29 02:03:57;;;;;;;5.13;4.93;;;;;;;14.31;100.00;101076.84;6045279;23;20018;-67
2022/06/29 02:06:24;;;;;;;4.68;4.47;;;;;;;14.03;100.00;101038.97;6003706;23;20315;-66
2022/06/29 02:08:52;;;;;;;5.00;4.80;;;;;;;13.61;100.00;100972.06;6056951;23;20109;-67
2022/06/29 02:11:19;;;;;;;6.00;5.50;;;;;;;14.20;100.00;101066.97;6035378;23;20276;-66
2022/06/29 02:13:46;;;;;;;5.18;4.97;;;;;;;13.46;100.00;100947.44;6043682;23;20074;-66
2022/06/29 02:16:12;;;;;;;7.45;7.07;;;;;;;13.96;100.00;101035.84;6022293;23;20042;-67
2022/06/29 02:18:39;;;;;;;4.90;4.70;;;;;;;13.01;100.00;100870.19;6058702;23;20093;-67
2022/06/29 02:21:05;;;;;;;6.50;6.20;;;;;;;13.88;100.00;101013.53;6054991;23;20018;-66
2022/06/29 02:23:32;;;;;;;5.00;4.80;;;;;;;13.92;100.00;101020.31;6045373;23;20154;-68
2022/06/29 02:25:59;;;;;;;5.30;5.07;;;;;;;12.86;100.00;100860.53;6057275;23;20511;-67
2022/06/29 02:28:25;;;;;;;4.95;4.75;;;;;;;13.85;100.00;101019.84;6025621;23;20023;-67
2022/06/29 02:36:22;;;;;;;5.00;4.80;;;;;;;12.78;100.00;100846.03;6050446;23;20095;-66
2022/06/29 02:38:48;;;;;;;4.90;4.70;;;;;;;13.99;100.00;101047.16;6036379;23;20436;-66
2022/06/29 02:41:15;;;;;;;6.38;6.07;;;;;;;13.85;100.00;101025.13;6057718;23;20024;-66
2022/06/29 02:43:41;;;;;;;5.32;5.05;;;;;;;14.02;100.00;101053.09;6045924;23;20092;-65
2022/06/29 02:46:08;;;;;;;6.68;6.38;;;;;;;14.03;100.00;101052.19;6040473;23;20039;-66
2022/06/29 02:48:34;;;;;;;5.18;4.97;;;;;;;13.46;100.00;100954.53;6028475;23;20043;-66
2022/06/29 02:51:01;;;;;;;5.80;5.50;;;;;;;13.94;100.00;101036.88;6055827;23;20014;-66
2022/06/29 02:53:27;;;;;;;5.10;4.90;;;;;;;14.02;100.00;101052.25;6032113;23;20039;-66
2022/06/29 02:55:54;;;;;;;4.82;4.63;;;;;;;13.89;100.00;101037.19;6052611;23;20026;-67
2022/06/29 02:58:20;;;;;;;4.90;4.70;;;;;;;13.96;100.00;101049.03;6037580;23;20035;-67
2022/06/29 03:00:47;;;;;;;5.00;4.80;;;;;;;13.70;100.00;101010.22;6048247;23;20358;-67
2022/06/29 03:03:13;;;;;;;6.45;6.15;;;;;;;13.96;100.00;101049.03;6057381;23;20022;-67
2022/06/29 03:05:40;;;;;;;4.80;4.60;;;;;;;13.48;100.00;100973.72;6052979;23;20014;-67
2022/06/29 03:08:07;;;;;;;7.30;7.00;;;;;;;13.94;100.00;101045.66;6031654;23;20086;-67
2022/06/29 03:10:33;;;;;;;5.00;4.80;;;;;;;13.91;100.00;101037.94;6051479;23;20542;-67
2022/06/29 03:12:59;;;;;;;5.53;5.30;;;;;;;13.87;100.00;101043.47;6021353;23;20082;-67
2022/06/29 03:15:26;;;;;;;4.88;4.68;;;;;;;13.68;100.00;101018.19;6052745;23;20068;-67
2022/06/29 03:17:53;;;;;;;4.90;4.70;;;;;;;12.98;100.00;100900.16;6030041;23;20081;-67
2022/06/29 03:20:20;;;;;;;5.75;5.45;;;;;;;13.46;100.00;100987.00;6022108;23;20038;-67
2022/06/29 03:22:47;;;;;;;5.00;4.80;;;;;;;12.44;100.00;100825.25;6028040;23;20057;-67
2022/06/29 03:25:16;;;;;;;7.10;6.80;;;;;;;13.29;100.00;100973.94;6058667;23;20018;-67
2022/06/29 03:27:44;;;;;;;5.10;4.90;;;;;;;13.62;100.00;101039.66;6053122;23;20030;-71
2022/06/29 03:30:11;;;;;;;6.50;6.20;;;;;;;13.61;100.00;101039.75;6048032;23;20069;-74
2022/06/29 03:32:38;;;;;;;4.85;4.65;;;;;;;13.61;100.00;101029.22;6053252;23;20034;-68
2022/06/29 03:35:05;;;;;;;6.28;5.97;;;;;;;12.48;100.00;100851.31;6022794;23;20026;-68
2022/06/29 03:37:31;;;;;;;4.88;4.68;;;;;;;13.68;100.00;101030.56;6047799;23;20231;-68
2022/06/29 03:39:58;;;;;;;4.82;4.63;;;;;;;12.64;100.00;100851.25;6031512;23;20077;-68
2022/06/29 03:42:24;;;;;;;4.80;4.60;;;;;;;12.88;100.00;100890.28;6046337;23;20277;-68
2022/06/29 03:44:51;;;;;;;4.85;4.65;;;;;;;13.78;100.00;101018.50;6051417;23;20070;-69
2022/06/29 03:47:17;;;;;;;5.00;4.80;;;;;;;13.83;100.00;101021.72;6044895;23;20270;-68
2022/06/29 03:49:44;;;;;;;4.90;4.70;;;;;;;13.85;100.00;101009.28;6018706;23;20103;-68
2022/06/29 03:52:10;;;;;;;6.35;6.05;;;;;;;13.91;100.00;101008.91;6021742;23;20034;-68
2022/06/29 03:54:37;;;;;;;4.93;4.72;;;;;;;13.91;100.00;101008.91;6024861;23;20385;-68
2022/06/29 03:57:04;;;;;;;6.57;6.28;;;;;;;13.84;100.00;100983.84;6047148;23;20022;-68
2022/06/29 03:59:30;;;;;;;5.10;4.90;;;;;;;12.87;100.00;100818.31;6030201;23;20396;-68
2022/06/29 04:01:57;;;;;;;4.90;4.70;;;;;;;12.89;100.00;100819.06;6041912;23;20018;-68
2022/06/29 04:04:23;;;;;;;5.20;4.90;;;;;;;14.18;100.00;100994.09;6026445;23;20030;-68
2022/06/29 04:06:50;;;;;;;5.00;4.80;;;;;;;14.27;100.00;101001.41;6006845;23;20026;-68
2022/06/29 04:09:16;;;;;;;5.63;5.43;;;;;;;14.40;100.00;101017.34;6054205;23;20018;-72
2022/06/29 04:11:49;;;;;;;5.07;4.88;;;;;;;13.46;100.00;100860.44;6032723;23;20055;-72
2022/06/29 04:14:16;;;;;;;4.90;4.70;;;;;;;14.67;100.00;101022.69;6047641;23;20408;-68
2022/06/29 04:16:42;;;;;;;4.90;4.70;;;;;;;14.79;100.00;101021.91;6054530;23;20010;-68
2022/06/29 04:19:09;;;;;;;6.82;6.53;;;;;;;13.70;100.00;100830.84;6023230;23;20110;-68
2022/06/29 04:21:36;;;;;;;5.10;4.90;;;;;;;14.91;100.00;101007.91;6059255;23;20003;-71
2022/06/29 04:24:02;;;;;;;6.40;6.10;;;;;;;15.28;100.00;101018.69;6047554;23;20526;-68
2022/06/29 04:26:29;;;;;;;5.18;4.90;;;;;;;15.77;100.00;101008.41;6049316;23;20043;-68
2022/06/29 04:28:55;;;;;;;5.10;4.90;;;;;;;15.76;100.00;101007.56;6049118;23;20109;-75
2022/06/29 04:31:22;;;;;;;5.70;5.40;;;;;;;15.73;99.71;101007.75;6023055;23;20031;-69
2022/06/29 04:33:49;;;;;;;4.97;4.78;;;;;;;15.66;100.00;101007.31;6054327;23;20049;-70
2022/06/29 04:36:15;;;;;;;5.70;5.50;;;;;;;15.76;100.00;100996.97;6041327;23;20498;-69
2022/06/29 04:38:42;;;;;;;5.10;4.90;;;;;;;15.90;100.00;101007.44;6044436;23;20217;-75
2022/06/29 04:41:08;;;;;;;6.70;6.40;;;;;;;15.58;99.29;100951.44;6058931;23;20022;-74
2022/06/29 04:43:35;;;;;;;5.10;4.90;;;;;;;15.91;99.39;101006.47;6047936;23;20014;-69
2022/06/29 04:46:19;;;;;;;6.78;6.47;;;;;;;15.89;98.69;101000.44;6044063;23;20080;-69
2022/06/29 04:48:58;;;;;;;5.07;4.88;;;;;;;16.14;99.14;100990.78;6047732;23;20027;-69
2022/06/29 04:51:26;;;;;;;5.30;5.10;;;;;;;16.24;98.15;100983.88;6039830;23;20014;-67
2022/06/29 04:53:54;;;;;;;5.10;4.90;;;;;;;16.17;97.62;100989.72;6043363;23;20035;-69
2022/06/29 04:56:22;;;;;;;5.20;5.00;;;;;;;16.07;98.21;100971.00;6046219;23;20078;-71
2022/06/29 04:58:51;;;;;;;4.90;4.70;;;;;;;16.60;96.63;100987.47;6027415;23;20211;-67
2022/06/29 05:01:18;;;;;;;6.57;6.28;;;;;;;16.84;93.75;100984.88;6053365;23;20179;-74
2022/06/29 05:03:44;;;;;;;6.13;5.72;;;;;;;16.70;93.99;100942.59;6047743;23;20036;-73
2022/06/29 05:06:11;;;;;;;7.07;6.78;;;;;;;16.88;94.29;100957.16;6019844;23;20226;-69
2022/06/29 05:08:37;;;;;;;5.30;5.10;;;;;;;17.05;94.63;100985.06;6057979;23;20071;-74
2022/06/29 05:11:04;;;;;;;6.45;6.15;;;;;;;17.03;95.06;100986.13;6039928;23;20030;-69
2022/06/29 05:13:31;;;;;;;5.28;5.07;;;;;;;16.87;96.14;100970.53;6026396;23;20033;-70
2022/06/29 05:15:57;;;;;;;6.07;5.68;;;;;;;17.01;95.71;100991.56;6046171;23;20055;-69
2022/06/29 05:18:24;;;;;;;5.28;5.07;;;;;;;17.06;96.70;100994.72;6049267;23;20536;-69
2022/06/29 05:20:55;;;;;;;5.30;5.10;;;;;;;17.01;97.90;100983.59;6063650;23;20022;-69
2022/06/29 05:23:22;;;;;;;5.60;5.30;;;;;;;16.37;97.37;100845.25;6043699;23;20413;-69
2022/06/29 05:25:48;;;;;;;5.38;5.18;;;;;;;17.40;96.83;100984.22;6052984;23;20019;-74
2022/06/29 05:28:15;;;;;;;5.70;5.40;;;;;;;17.43;96.49;100976.00;6021596;23;20019;-72
2022/06/29 05:30:42;;;;;;;5.60;5.30;;;;;;;17.74;94.12;101011.66;6040336;23;20275;-73
2022/06/29 05:33:08;;;;;;;6.57;6.25;;;;;;;17.63;90.53;101003.66;6051037;23;20042;-69
2022/06/29 05:35:35;;;;;;;5.43;5.18;;;;;;;17.51;89.03;100989.53;6034193;23;20025;-69
2022/06/29 05:38:03;;;;;;;6.78;6.43;;;;;;;17.60;88.63;101009.22;6022812;23;20046;-69
2022/06/29 05:40:30;;;;;;;5.20;5.00;;;;;;;17.48;87.81;100991.56;6051021;23;20498;-69
2022/06/29 05:42:57;;;;;;;5.38;5.18;;;;;;;17.47;89.37;101011.94;6025132;23;20487;-69
2022/06/29 05:45:25;;;;;;;6.80;6.40;;;;;;;16.42;89.86;100821.94;6042500;23;20099;-72
2022/06/29 05:47:53;;;;;;;5.82;5.53;;;;;;;17.59;89.75;100996.91;6027740;23;20027;-73
2022/06/29 05:50:21;;;;;;;6.00;5.70;;;;;;;17.48;88.99;100968.53;6035374;23;20158;-69
2022/06/29 05:52:47;;;;;;;5.47;5.28;;;;;;;17.84;89.16;101005.63;6048662;23;20049;-69
2022/06/29 05:55:14;;;;;;;7.00;6.70;;;;;;;16.88;87.56;100802.59;6015486;23;20455;-67
2022/06/29 05:57:40;;;;;;;5.15;4.95;;;;;;;16.54;87.60;100733.59;6049803;23;20065;-69
2022/06/29 06:00:10;;;;;;;7.25;6.85;;;;;;;18.21;88.35;100995.63;6012780;23;20286;-67
2022/06/29 06:02:36;;;;;;;5.78;5.47;;;;;;;18.38;87.57;100990.78;6043229;23;20018;-72
2022/06/29 06:05:03;;;;;;;6.45;6.15;;;;;;;18.50;86.58;100981.81;6048524;23;20573;-72
2022/06/29 06:07:30;;;;;;;5.95;5.65;;;;;;;17.50;85.30;100782.66;6020482;23;20018;-74
2022/06/29 06:09:57;;;;;;;5.45;5.15;;;;;;;18.83;84.73;100993.34;6046452;23;20092;-70
2022/06/29 06:12:23;;;;;;;5.65;5.43;;;;;;;18.96;84.08;100988.69;6023855;23;20022;-69
2022/06/29 06:14:50;;;;;;;5.45;5.22;;;;;;;18.92;83.45;100960.66;6063501;23;20030;-67
2022/06/29 06:17:16;;;;;;;5.80;5.50;;;;;;;19.06;82.79;100983.47;6052629;23;20514;-67
2022/06/29 06:19:43;;;;;;;7.05;6.50;;;;;;;18.05;82.96;100806.59;6021575;23;20018;-67
2022/06/29 06:22:09;;;;;;;6.97;6.68;;;;;;;19.04;83.55;100980.06;6021422;23;20015;-69
2022/06/29 06:24:37;;;;;;;5.43;5.20;;;;;;;19.13;83.95;100980.16;6055522;23;20561;-75
2022/06/29 06:27:03;;;;;;;7.25;6.95;;;;;;;19.21;82.76;100955.56;6017874;23;20033;-73
2022/06/29 06:29:30;;;;;;;5.90;5.60;;;;;;;19.33;81.55;100970.50;6048228;23;20034;-69
2022/06/29 06:31:56;;;;;;;5.75;5.45;;;;;;;18.11;82.28;100822.03;6001065;23;20075;-67
2022/06/29 06:34:23;;;;;;;16.88;16.08;;;;;;;18.93;81.30;100951.72;5927359;23;20292;-73
2022/06/29 06:36:50;;;;;;;5.65;5.35;;;;;;;19.22;79.71;100975.88;6016801;23;20003;-72
2022/06/29 06:39:16;;;;;;;6.30;6.00;;;;;;;19.37;79.08;100986.22;6015481;23;20035;-72
2022/06/29 06:41:43;;;;;;;5.30;5.10;;;;;;;19.55;78.98;100989.13;6049287;23;20280;-71
2022/06/29 06:44:09;;;;;;;7.15;6.75;;;;;;;19.53;78.73;100983.94;6006008;23;20021;-73
2022/06/29 06:46:36;;;;;;;5.53;5.32;;;;;;;19.54;79.32;100982.94;6041129;23;20049;-75
2022/06/29 06:49:03;;;;;;;6.88;6.57;;;;;;;18.37;77.41;100829.66;6016377;23;20316;-71
2022/06/29 06:51:29;;;;;;;5.65;5.35;;;;;;;19.13;77.17;100977.50;6039497;23;20010;-74
2022/06/29 06:53:56;;;;;;;5.78;5.47;;;;;;;19.13;77.07;100995.28;6052126;23;20022;-69
2022/06/29 06:56:22;;;;;;;5.40;5.20;;;;;;;18.96;76.40;100972.72;6031252;23;20022;-69
2022/06/29 06:58:49;;;;;;;5.57;5.38;;;;;;;19.03;77.18;100975.75;6048580;23;20028;-69
2022/06/29 07:01:20;;;;;;;5.75;5.45;;;;;;;19.13;75.99;100997.94;6028034;23;20030;-75
2022/06/29 07:03:47;;;;;;;5.45;5.25;;;;;;;19.25;76.05;100998.72;6053483;23;20403;-70
2022/06/29 07:06:14;;;;;;;6.70;6.40;;;;;;;18.24;76.12;100813.88;6036120;23;20023;-69
2022/06/29 07:08:40;;;;;;;5.38;5.18;;;;;;;19.48;76.01;100999.44;6050661;23;20359;-70
2022/06/29 07:11:08;;;;;;;6.63;6.32;;;;;;;19.48;75.37;100994.97;6022093;23;20322;-70
2022/06/29 07:13:35;;;;;;;5.38;5.18;;;;;;;19.50;75.85;100985.03;6032704;23;20046;-69
2022/06/29 07:16:04;;;;;;;6.32;6.03;;;;;;;19.45;73.42;100995.22;6033079;23;20082;-69
2022/06/29 07:18:32;;;;;;;5.30;5.10;;;;;;;19.53;73.36;100989.25;6052626;23;20025;-68
2022/06/29 07:20:59;;;;;;;5.55;5.25;;;;;;;18.74;73.44;100840.69;6038561;23;20018;-69
2022/06/29 07:23:27;;;;;;;7.28;6.80;;;;;;;18.72;73.21;100843.50;6023900;23;20442;-69
2022/06/29 07:25:54;;;;;;;5.63;5.35;;;;;;;19.64;70.65;100988.31;6004697;23;20022;-69
2022/06/29 07:28:21;;;;;;;5.53;5.22;;;;;;;18.60;71.54;100841.03;6047713;23;20220;-69
2022/06/29 07:30:48;;;;;;;5.18;4.97;;;;;;;18.43;71.12;100837.97;6021711;23;20086;-69
2022/06/29 07:33:15;;;;;;;5.82;5.53;;;;;;;19.31;72.61;100967.13;6041972;23;20265;-69
2022/06/29 07:35:41;;;;;;;5.35;5.05;;;;;;;19.45;72.95;100967.78;6027960;23;20169;-69
2022/06/29 07:38:09;;;;;;;6.72;6.43;;;;;;;19.43;72.37;100943.94;6039488;23;20147;-69
2022/06/29 07:40:36;;;;;;;5.40;5.13;;;;;;;19.83;73.52;100980.47;6039155;23;20022;-69
2022/06/29 07:43:02;;;;;;;6.63;6.32;;;;;;;20.04;72.52;100993.72;6021690;23;20136;-69
2022/06/29 07:45:29;;;;;;;5.38;5.10;;;;;;;20.10;72.11;100984.34;6031429;23;20353;-68
2022/06/29 07:48:00;;;;;;;5.60;5.35;;;;;;;20.16;72.93;100962.50;6054346;23;20068;-69
2022/06/29 07:50:27;;;;;;;5.80;5.50;;;;;;;20.39;70.27;100984.44;6024662;23;20499;-69
2022/06/29 07:52:53;;;;;;;5.82;5.53;;;;;;;20.59;68.40;100980.03;6045521;23;20314;-69
2022/06/29 07:55:20;;;;;;;5.50;5.10;;;;;;;20.77;67.51;100982.84;6049063;23;20022;-75
2022/06/29 07:57:47;;;;;;;5.70;5.40;;;;;;;20.76;67.77;100962.47;6046920;23;20057;-69
2022/06/29 08:00:14;;;;;;;6.65;6.32;;;;;;;20.83;66.80;100982.28;6044758;23;20551;-68
2022/06/29 08:02:40;;;;;;;5.30;5.10;;;;;;;20.56;68.69;100950.94;6039923;23;20030;-69
2022/06/29 08:05:08;;;;;;;6.82;6.53;;;;;;;19.53;67.34;100803.75;6028269;23;20095;-69
2022/06/29 08:07:34;;;;;;;5.50;5.10;;;;;;;20.61;67.84;100980.72;6059840;23;20686;-75
2022/06/29 08:10:03;;;;;;;7.05;6.75;;;;;;;20.59;68.77;100984.53;6009408;23;20346;-69
2022/06/29 08:12:30;;;;;;;5.50;5.30;;;;;;;20.16;68.48;100954.50;6044634;23;20244;-69
2022/06/29 08:14:56;;;;;;;5.70;5.40;;;;;;;20.37;68.84;100985.56;6003009;23;20049;-69
2022/06/29 08:17:23;;;;;;;5.30;5.10;;;;;;;20.26;70.01;100976.69;6049883;23;20490;-70
2022/06/29 08:19:58;;;;;;;5.63;5.32;;;;;;;20.22;70.06;100990.44;6026374;23;20030;-74
2022/06/29 08:22:24;;;;;;;6.00;5.70;;;;;;;20.09;70.30;100977.34;6039523;23;20152;-69
2022/06/29 08:24:51;;;;;;;5.63;5.40;;;;;;;20.29;70.45;100989.75;6018130;23;20077;-75
2022/06/29 08:27:22;;;;;;;6.25;5.95;;;;;;;19.77;70.65;100949.03;6043159;23;20217;-69
2022/06/29 08:30:11;;;;;;;6.82;6.53;;;;;;;20.02;71.51;100989.50;6027800;23;20576;-69
2022/06/29 08:32:39;;;;;;;5.50;5.30;;;;;;;19.94;71.40;100971.53;6034065;23;20030;-69
2022/06/29 08:35:06;;;;;;;6.85;6.40;;;;;;;20.14;71.88;100967.13;6022839;23;20026;-69
2022/06/29 08:37:36;;;;;;;5.20;5.00;;;;;;;20.23;72.05;100962.81;6035934;23;20170;-69
2022/06/29 08:40:03;;;;;;;6.88;6.47;;;;;;;20.27;71.14;100962.38;6029824;23;20081;-69
2022/06/29 08:42:30;;;;;;;6.10;5.80;;;;;;;20.48;70.26;100988.09;6052040;23;20577;-69
2022/06/29 08:44:57;;;;;;;6.03;5.63;;;;;;;19.58;71.04;100824.63;6034365;23;20725;-69
2022/06/29 08:47:24;;;;;;;5.57;5.35;;;;;;;20.72;71.71;100991.25;6053939;23;20096;-73
2022/06/29 08:49:50;;;;;;;5.50;5.30;;;;;;;20.45;71.43;100930.56;6021670;23;20085;-67
2022/06/29 08:52:18;;;;;;;5.63;5.32;;;;;;;20.75;71.73;101593.00;6024234;23;20097;-69
2022/06/29 08:54:46;;;;;;;5.22;5.03;;;;;;;20.76;70.80;101290.56;6025113;23;20289;-69
2022/06/29 08:57:14;;;;;;;8.07;7.57;;;;;;;20.77;70.50;101182.03;6043488;23;20026;-72
2022/06/29 08:59:42;;;;;;;6.47;6.07;;;;;;;20.78;69.51;101266.44;6053092;23;20022;-69
2022/06/29 09:02:26;;;;;;;5.65;5.38;;;;;;;20.80;69.59;101121.28;6040075;23;20046;-74
2022/06/29 09:04:54;;;;;;;5.30;5.10;;;;;;;20.68;66.40;101149.88;6022732;23;20026;-69
2022/06/29 09:07:20;;;;;;;6.25;5.68;;;;;;;20.56;66.98;101465.59;6052408;23;20029;-69
2022/06/29 09:10:00;;;;;;;5.57;5.25;;;;;;;20.69;67.14;101865.59;6026263;23;20010;-75
2022/06/29 09:12:29;;;;;;;5.45;5.25;;;;;;;20.59;67.48;101726.75;6021287;23;20349;-69
2022/06/29 09:14:56;;;;;;;5.75;5.45;;;;;;;20.92;67.40;101738.38;5995811;23;20044;-69
2022/06/29 09:17:23;;;;;;;5.90;5.60;;;;;;;20.78;67.66;101501.19;6001893;23;21506;-68
2022/06/29 09:19:51;;;;;;;6.20;5.75;;;;;;;20.88;67.89;101470.09;6027473;23;20019;-69
2022/06/29 09:22:52;;;;;;;5.50;5.30;;;;;;;20.91;68.15;101382.66;6024225;23;20464;-69
2022/06/29 09:25:24;;;;;;;6.30;6.00;;;;;;;21.08;66.59;101389.19;5999457;23;20027;-69
2022/06/29 09:27:54;;;;;;;5.50;5.30;;;;;;;21.07;65.47;101390.19;6025937;23;20170;-69
2022/06/29 09:30:26;;;;;;;5.80;5.50;;;;;;;20.71;66.13;101320.31;6018492;23;21314;-73
2022/06/29 09:33:06;;;;;;;5.70;5.40;;;;;;;21.14;65.94;101697.47;5997985;23;20536;-75
2022/06/29 09:35:34;;;;;;;5.50;5.20;;;;;;;21.10;64.17;101448.63;6013509;23;20495;-74
2022/06/29 09:38:24;;;;;;;6.40;6.10;;;;;;;21.30;65.09;101388.19;5992436;23;20014;-69
2022/06/29 09:40:59;;;;;;;7.57;5.60;;;;;;;19.82;63.88;101132.41;6031463;23;20090;-70
2022/06/29 09:43:27;;;;;;;5.55;5.25;;;;;;;21.76;63.64;101364.63;6010368;23;20010;-73
2022/06/29 09:45:57;;;;;;;5.55;5.25;;;;;;;21.52;62.39;101242.97;6032127;23;20022;-69
2022/06/29 09:48:25;;;;;;;5.80;5.50;;;;;;;22.69;60.91;101366.00;5991344;23;20030;-73
2022/06/29 09:50:53;;;;;;;5.72;5.43;;;;;;;23.01;57.51;101362.16;6024351;23;20046;-69
2022/06/29 09:53:38;;;;;;;5.63;5.38;;;;;;;23.60;55.99;101338.66;6002677;23;20049;-69
2022/06/29 09:56:07;;;;;;;7.10;6.80;;;;;;;23.94;52.04;101342.59;6007124;23;20065;-72
2022/06/29 09:58:45;;;;;;;5.93;5.63;;;;;;;24.12;49.94;101335.38;6027290;23;20023;-69
2022/06/29 10:03:58;;;;;;;6.13;5.72;;;;;;;23.99;48.75;101324.19;6022913;23;20035;-75
2022/06/29 10:06:25;;;;;;;5.60;5.40;;;;;;;24.41;49.04;101323.56;6030142;23;20013;-69
2022/06/29 10:09:01;;;;;;;6.22;5.82;;;;;;;24.84;48.29;101324.59;6019547;23;20046;-70
2022/06/29 10:14:31;;;;;;;6.10;5.80;;;;;;;25.26;47.08;101305.88;6027610;23;20029;-74
2022/06/29 10:17:10;;;;;;;6.13;5.82;;;;;;;25.56;45.26;101302.75;6046900;23;20022;-69
2022/06/29 10:19:47;;;;;;;5.97;5.68;;;;;;;25.64;47.36;101295.56;5999288;23;20601;-70
2022/06/29 10:22:13;;;;;;;7.60;7.20;;;;;;;25.78;46.83;101247.53;6046234;23;20144;-70
2022/06/29 10:25:07;;;;;;;6.50;6.10;;;;;;;25.74;45.61;101262.31;6018877;23;20030;-70
2022/06/29 10:27:34;;;;;;;5.90;5.60;;;;;;;25.96;46.56;101258.16;6051966;23;20018;-70
2022/06/29 10:30:20;;;;;;;6.93;6.53;;;;;;;25.45;46.63;101242.94;6027505;23;20029;-75
2022/06/29 10:32:47;;;;;;;6.20;5.90;;;;;;;26.00;46.48;101244.22;6044154;23;20031;-70
2022/06/29 10:35:14;;;;;;;7.75;7.35;;;;;;;26.34;45.07;101242.34;6043610;23;20058;-70
2022/06/29 10:37:52;;;;;;;6.15;5.85;;;;;;;26.66;44.03;101222.63;6045564;23;20474;-74
2022/06/29 10:40:24;;;;;;;5.90;5.60;;;;;;;25.93;44.88;102552.28;6017539;23;20073;-70
2022/06/29 10:43:10;;;;;;;6.00;5.70;;;;;;;26.34;43.00;101697.16;6053321;23;20089;-72
2022/06/29 10:45:43;;;;;;;6.30;5.90;;;;;;;26.22;43.33;101584.44;6035186;23;20094;-70
2022/06/29 10:48:12;;;;;;;7.32;6.93;;;;;;;27.33;42.91;101653.47;6044728;23;20108;-70
2022/06/29 10:50:43;;;;;;;6.18;5.88;;;;;;;27.59;41.94;101620.09;6034722;23;20054;-70
2022/06/29 10:53:11;;;;;;;7.22;6.82;;;;;;;27.40;41.14;101560.13;6043033;23;20341;-70
2022/06/29 10:55:42;;;;;;;6.10;5.80;;;;;;;27.45;40.87;101549.66;6019803;23;20019;-73
2022/06/29 10:58:10;;;;;;;7.50;7.10;;;;;;;27.02;40.91;101389.16;6053733;23;20085;-74
2022/06/29 11:00:38;;;;;;;6.50;6.20;;;;;;;27.90;39.57;101511.50;6038416;23;20022;-73
2022/06/29 11:03:17;;;;;;;7.35;6.95;;;;;;;27.72;42.22;101490.94;6022979;23;20035;-68
2022/06/29 11:16:58;;;;;;;5.93;5.63;;;;;;;27.35;40.93;101354.94;6030739;23;20021;-69
2022/06/29 11:19:29;;;;;;;6.10;5.80;;;;;;;26.46;41.36;101360.25;6047880;23;20082;-70
2022/06/29 11:22:11;;;;;;;6.10;5.80;;;;;;;25.61;41.45;101220.63;6052307;23;20008;-69
2022/06/29 11:24:55;;;;;;;5.97;5.68;;;;;;;26.13;42.02;101331.66;6056493;23;20037;-70
2022/06/29 11:27:37;;;;;;;6.10;5.80;;;;;;;26.63;43.26;101296.50;6032655;23;20033;-69
2022/06/29 11:30:12;;;;;;;7.00;6.70;;;;;;;26.56;40.03;101327.78;6048128;23;20100;-70
2022/06/29 11:32:41;;;;;;;6.47;6.10;;;;;;;25.91;39.73;101268.59;6032882;23;20011;-69
2022/06/29 11:35:09;;;;;;;7.15;6.85;;;;;;;24.41;40.66;101039.19;6053020;23;20105;-74
2022/06/29 11:37:48;;;;;;;5.75;5.47;;;;;;;26.40;40.23;101327.78;6033569;23;20195;-71
2022/06/29 11:40:30;;;;;;;7.95;7.55;;;;;;;25.96;41.56;101196.31;6053144;23;20199;-73
2022/06/29 11:43:04;;;;;;;6.47;6.18;;;;;;;26.25;39.83;101211.94;6041966;23;20010;-72
2022/06/29 11:45:44;;;;;;;5.90;5.60;;;;;;;27.19;40.83;101306.47;6047249;23;20018;-71
2022/06/29 11:48:22;;;;;;;7.55;7.15;;;;;;;27.44;38.94;101308.06;6034416;23;20026;-72
2022/06/29 11:50:56;;;;;;;5.80;5.50;;;;;;;27.64;40.49;101300.38;6050287;23;20123;-73